createdAt,value
2018-04-16T00:00:25.157Z,22.67
2018-04-16T00:02:52.662Z,22.20
2018-04-16T00:05:20.159Z,23.33
2018-04-16T00:07:47.745Z,21.57
2018-04-16T00:10:15.259Z,22.43
2018-04-16T00:12:42.764Z,22.53
2018-04-16T00:15:10.543Z,21.97
2018-04-16T00:17:38.159Z,23.60
2018-04-16T00:20:05.795Z,22.90
2018-04-16T00:22:34.086Z,23.67
2018-04-16T00:25:03.521Z,26.47
2018-04-16T00:27:31.032Z,30.13
2018-04-16T00:29:58.538Z,26.10
2018-04-16T00:32:31.696Z,23.57
2018-04-16T00:35:04.845Z,27.63
2018-04-16T00:37:38.375Z,24.30
2018-04-16T00:40:11.557Z,23.97
2018-04-16T00:42:44.831Z,26.47
2018-04-16T00:45:17.927Z,25.37
2018-04-16T00:47:51.021Z,26.27
2018-04-16T00:53:24.989Z,26.07
2018-04-16T00:56:09.973Z,23.80
2018-04-16T00:58:43.281Z,28.20
2018-04-16T01:01:16.435Z,27.77
2018-04-16T01:03:49.725Z,29.57
2018-04-16T01:06:23.849Z,31.03
2018-04-16T01:08:57.904Z,28.63
2018-04-16T01:11:31.210Z,25.90
2018-04-16T01:14:04.534Z,26.13
2018-04-16T01:16:46.926Z,28.17
2018-04-16T01:19:20.077Z,26.60
2018-04-16T01:21:53.228Z,33.07
2018-04-16T01:24:27.311Z,35.27
2018-04-16T01:27:01.025Z,27.73
2018-04-16T01:29:34.180Z,31.00
2018-04-16T01:32:07.308Z,25.70
2018-04-16T01:34:41.138Z,24.27
2018-04-16T01:37:15.240Z,31.53
2018-04-16T01:39:48.402Z,29.20
2018-04-16T01:42:21.521Z,28.80
2018-04-16T01:44:54.799Z,27.53
2018-04-16T01:47:28.005Z,25.27
2018-04-16T01:50:01.346Z,29.03
2018-04-16T01:52:34.569Z,26.73
2018-04-16T01:55:07.851Z,28.73
2018-04-16T01:57:41.083Z,28.33
2018-04-16T02:00:14.211Z,26.70
2018-04-16T02:02:47.468Z,28.17
2018-04-16T02:05:20.716Z,26.97
2018-04-16T02:07:53.821Z,28.23
2018-04-16T02:10:27.166Z,30.20
2018-04-16T02:13:01.261Z,30.80
2018-04-16T02:15:35.239Z,42.30
2018-04-16T02:18:20.597Z,34.67
2018-04-16T02:20:53.825Z,27.87
2018-04-16T02:23:27.117Z,27.93
2018-04-16T02:26:00.401Z,26.93
2018-04-16T02:28:33.742Z,31.80
2018-04-16T02:31:07.714Z,33.03
2018-04-16T02:33:41.061Z,31.60
2018-04-16T02:39:13.139Z,30.27
2018-04-16T02:41:46.230Z,29.53
2018-04-16T02:44:19.424Z,35.07
2018-04-16T02:46:52.539Z,33.00
2018-04-16T02:49:25.815Z,28.20
2018-04-16T02:51:59.189Z,31.10
2018-04-16T02:54:33.295Z,33.27
2018-04-16T02:57:07.293Z,37.30
2018-04-16T02:59:40.469Z,30.70
2018-04-16T03:02:13.631Z,31.77
2018-04-16T03:04:46.989Z,36.20
2018-04-16T03:07:20.955Z,31.20
2018-04-16T03:09:54.178Z,29.40
2018-04-16T03:12:27.255Z,30.73
2018-04-16T03:15:00.617Z,30.47
2018-04-16T03:17:33.743Z,31.00
2018-04-16T03:20:07.013Z,32.50
2018-04-16T03:22:40.329Z,29.53
2018-04-16T03:25:13.433Z,37.00
2018-04-16T03:27:47.417Z,34.20
2018-04-16T03:30:20.747Z,30.00
2018-04-16T03:32:53.951Z,31.27
2018-04-16T03:35:27.927Z,30.47
2018-04-16T03:38:01.199Z,33.00
2018-04-16T03:40:34.441Z,35.00
2018-04-16T03:43:08.515Z,35.53
2018-04-16T03:45:41.727Z,32.60
2018-04-16T03:48:14.877Z,39.07
2018-04-16T03:50:48.075Z,35.13
2018-04-16T03:53:18.569Z,37.10
2018-04-16T03:56:03.514Z,26.83
2018-04-16T03:58:31.019Z,32.40
2018-04-16T04:00:58.517Z,37.77
2018-04-16T04:03:26.029Z,30.17
2018-04-16T04:05:54.301Z,33.60
2018-04-16T04:08:22.563Z,32.93
2018-04-16T04:10:50.056Z,29.90
2018-04-16T04:13:18.410Z,39.87
2018-04-16T04:15:45.978Z,37.00
2018-04-16T04:18:14.507Z,37.07
2018-04-16T04:20:42.049Z,34.07
2018-04-16T04:23:22.300Z,38.53
2018-04-16T04:26:03.174Z,37.37
2018-04-16T04:28:43.308Z,35.73
2018-04-16T04:31:10.887Z,33.60
2018-04-16T04:33:38.471Z,33.40
2018-04-16T04:36:06.052Z,36.43
2018-04-16T04:38:33.559Z,28.50
2018-04-16T04:41:01.067Z,33.10
2018-04-16T04:43:28.573Z,30.43
2018-04-16T04:45:56.074Z,30.03
2018-04-16T04:48:24.343Z,34.90
2018-04-16T04:50:52.641Z,32.70
2018-04-16T04:53:20.900Z,32.20
2018-04-16T04:55:48.527Z,38.83
2018-04-16T04:58:16.035Z,43.90
2018-04-16T05:00:44.307Z,32.67
2018-04-16T05:03:11.835Z,34.77
2018-04-16T05:05:39.356Z,35.73
2018-04-16T05:08:08.780Z,31.37
2018-04-16T05:10:36.419Z,38.33
2018-04-16T05:13:04.698Z,30.17
2018-04-16T05:15:32.976Z,28.67
2018-04-16T05:18:01.234Z,34.20
2018-04-16T05:20:28.747Z,29.30
2018-04-16T05:22:56.229Z,30.40
2018-04-16T05:25:23.771Z,36.70
2018-04-16T05:27:51.324Z,32.13
2018-04-16T05:30:19.648Z,39.10
2018-04-16T05:32:47.173Z,37.87
2018-04-16T05:35:15.421Z,35.80
2018-04-16T05:37:42.926Z,43.40
2018-04-16T05:40:10.425Z,40.13
2018-04-16T05:42:37.925Z,40.60
2018-04-16T05:45:05.427Z,42.77
2018-04-16T05:47:32.935Z,47.23
2018-04-16T05:50:00.453Z,48.07
2018-04-16T05:52:27.972Z,47.97
2018-04-16T05:54:56.391Z,49.20
2018-04-16T05:57:23.893Z,44.23
2018-04-16T05:59:51.548Z,42.43
2018-04-16T06:02:19.136Z,44.37
2018-04-16T06:04:47.394Z,50.20
2018-04-16T06:07:14.900Z,59.83
2018-04-16T06:09:43.165Z,44.83
2018-04-16T06:12:10.703Z,38.60
2018-04-16T06:14:38.201Z,51.23
2018-04-16T06:17:05.688Z,54.93
2018-04-16T06:19:33.940Z,53.87
2018-04-16T06:22:01.479Z,45.70
2018-04-16T06:24:28.977Z,50.23
2018-04-16T06:26:57.246Z,47.63
2018-04-16T06:29:24.769Z,56.27
2018-04-16T06:31:52.285Z,44.40
2018-04-16T06:34:20.611Z,45.60
2018-04-16T06:36:48.122Z,40.10
2018-04-16T06:39:15.632Z,39.27
2018-04-16T06:41:43.234Z,39.37
2018-04-16T06:44:11.536Z,40.93
2018-04-16T06:46:39.844Z,41.47
2018-04-16T06:49:07.368Z,41.73
2018-04-16T06:51:35.616Z,42.40
2018-04-16T06:54:03.116Z,41.10
2018-04-16T06:56:30.615Z,40.30
2018-04-16T06:58:58.895Z,43.77
2018-04-16T07:01:26.394Z,49.00
2018-04-16T07:03:53.918Z,38.00
2018-04-16T07:06:21.477Z,41.43
2018-04-16T07:08:49.036Z,44.80
2018-04-16T07:11:16.581Z,37.27
2018-04-16T07:13:44.097Z,39.37
2018-04-16T07:16:11.605Z,41.80
2018-04-16T07:18:39.170Z,35.20
2018-04-16T07:21:07.048Z,35.60
2018-04-16T07:23:34.568Z,35.23
2018-04-16T07:26:02.871Z,38.60
2018-04-16T07:28:30.378Z,37.00
2018-04-16T07:30:58.611Z,35.73
2018-04-16T07:33:26.739Z,37.10
2018-04-16T07:35:54.252Z,59.70
2018-04-16T07:38:21.768Z,37.73
2018-04-16T07:40:49.317Z,31.47
2018-04-16T07:43:17.687Z,36.60
2018-04-16T07:45:45.967Z,39.53
2018-04-16T07:48:14.249Z,37.03
2018-04-16T07:50:42.527Z,40.17
2018-04-16T07:53:10.820Z,34.97
2018-04-16T07:55:39.079Z,33.77
2018-04-16T07:58:06.587Z,41.63
2018-04-16T08:00:34.743Z,32.87
2018-04-16T08:03:03.027Z,47.93
2018-04-16T08:05:36.218Z,44.10
2018-04-16T08:08:04.494Z,35.87
2018-04-16T08:10:33.425Z,36.27
2018-04-16T08:13:00.979Z,34.93
2018-04-16T08:15:28.478Z,40.53
2018-04-16T08:17:56.040Z,39.80
2018-04-16T08:20:23.559Z,36.53
2018-04-16T08:22:51.851Z,42.13
2018-04-16T08:25:19.351Z,39.90
2018-04-16T08:27:46.981Z,37.23
2018-04-16T08:30:14.570Z,48.47
2018-04-16T08:32:42.084Z,37.23
2018-04-16T08:35:10.383Z,46.80
2018-04-16T08:37:38.111Z,37.10
2018-04-16T08:40:05.606Z,37.93
2018-04-16T08:42:34.611Z,41.07
2018-04-16T08:45:02.125Z,40.90
2018-04-16T08:47:29.625Z,54.13
2018-04-16T08:49:58.053Z,53.40
2018-04-16T08:52:25.585Z,53.87
2018-04-16T08:54:53.094Z,50.07
2018-04-16T08:57:20.593Z,60.13
2018-04-16T08:59:48.895Z,48.33
2018-04-16T09:02:16.406Z,50.90
2018-04-16T09:04:43.927Z,43.80
2018-04-16T09:07:11.432Z,43.97
2018-04-16T09:09:38.955Z,50.00
2018-04-16T09:12:06.440Z,41.20
2018-04-16T09:14:34.121Z,38.60
2018-04-16T09:17:01.701Z,39.23
2018-04-16T09:19:29.247Z,44.90
2018-04-16T09:21:56.751Z,39.87
2018-04-16T09:24:25.186Z,35.83
2018-04-16T09:26:52.723Z,40.80
2018-04-16T09:29:20.538Z,35.73
2018-04-16T09:31:48.047Z,38.30
2018-04-16T09:34:15.604Z,37.30
2018-04-16T09:36:43.882Z,37.17
2018-04-16T09:39:12.162Z,36.27
2018-04-16T09:41:40.478Z,36.00
2018-04-16T09:44:08.005Z,37.80
2018-04-16T09:46:36.307Z,37.30
2018-04-16T09:49:03.915Z,38.07
2018-04-16T09:51:31.421Z,36.00
2018-04-16T09:53:59.695Z,33.20
2018-04-16T09:56:27.976Z,45.90
2018-04-16T09:58:56.269Z,40.53
2018-04-16T10:01:25.788Z,34.57
2018-04-16T10:03:53.337Z,40.50
2018-04-16T10:06:21.595Z,39.20
2018-04-16T10:08:49.163Z,41.50
2018-04-16T10:11:16.915Z,39.27
2018-04-16T10:13:44.429Z,38.10
2018-04-16T10:16:11.976Z,35.00
2018-04-16T10:18:39.499Z,31.20
2018-04-16T10:21:07.023Z,32.87
2018-04-16T10:23:34.543Z,44.90
2018-04-16T10:26:02.811Z,39.90
2018-04-16T10:28:30.303Z,33.30
2018-04-16T10:30:58.588Z,36.43
2018-04-16T10:33:26.881Z,33.10
2018-04-16T10:35:54.431Z,38.23
2018-04-16T10:38:22.736Z,33.57
2018-04-16T10:40:50.265Z,41.17
2018-04-16T10:43:18.546Z,38.60
2018-04-16T10:45:46.049Z,34.03
2018-04-16T10:48:14.685Z,36.73
2018-04-16T10:50:42.443Z,39.27
2018-04-16T10:53:09.941Z,31.17
2018-04-16T10:55:37.490Z,47.23
2018-04-16T10:58:04.991Z,54.17
2018-04-16T11:00:32.517Z,65.10
2018-04-16T11:03:00.085Z,37.10
2018-04-16T11:05:27.629Z,67.27
2018-04-16T11:07:55.167Z,52.67
2018-04-16T11:10:22.672Z,37.10
2018-04-16T11:12:50.203Z,27.60
2018-04-16T11:15:17.706Z,32.83
2018-04-16T11:17:46.051Z,30.53
2018-04-16T11:20:13.654Z,45.77
2018-04-16T11:22:41.433Z,45.10
2018-04-16T11:25:09.701Z,31.67
2018-04-16T11:27:37.222Z,28.07
2018-04-16T11:30:04.747Z,31.23
2018-04-16T11:32:33.005Z,36.57
2018-04-16T11:35:00.519Z,52.70
2018-04-16T11:37:28.024Z,32.47
2018-04-16T11:39:55.690Z,28.53
2018-04-16T11:42:23.288Z,25.40
2018-04-16T11:44:50.821Z,25.70
2018-04-16T11:47:18.363Z,37.57
2018-04-16T11:49:45.914Z,25.43
2018-04-16T11:52:13.425Z,26.33
2018-04-16T11:54:43.115Z,28.57
2018-04-16T11:57:10.629Z,34.67
2018-04-16T11:59:38.199Z,29.77
2018-04-16T12:02:05.711Z,27.53
2018-04-16T12:04:33.789Z,24.97
2018-04-16T12:07:01.258Z,25.40
2018-04-16T12:09:28.766Z,34.83
2018-04-16T12:11:56.272Z,28.47
2018-04-16T12:14:24.001Z,26.63
2018-04-16T12:16:51.535Z,24.80
2018-04-16T12:19:19.801Z,29.83
2018-04-16T12:21:47.339Z,24.37
2018-04-16T12:24:14.979Z,29.63
2018-04-16T12:26:42.510Z,32.40
2018-04-16T12:29:10.850Z,33.63
2018-04-16T12:31:39.060Z,32.13
2018-04-16T12:34:07.390Z,31.57
2018-04-16T12:36:35.252Z,34.43
2018-04-16T12:39:02.761Z,29.20
2018-04-16T12:41:31.237Z,32.40
2018-04-16T12:43:58.798Z,28.20
2018-04-16T12:46:26.648Z,28.03
2018-04-16T12:48:59.971Z,31.00
2018-04-16T12:51:27.599Z,32.00
2018-04-16T12:53:56.516Z,30.13
2018-04-16T12:56:24.043Z,39.97
2018-04-16T12:58:51.589Z,29.43
2018-04-16T13:01:20.227Z,33.37
2018-04-16T13:03:48.486Z,29.23
2018-04-16T13:06:21.892Z,27.83
2018-04-16T13:08:49.746Z,28.10
2018-04-16T13:11:17.347Z,26.73
2018-04-16T13:13:44.891Z,28.33
2018-04-16T13:16:18.267Z,26.40
2018-04-16T13:18:52.497Z,24.63
2018-04-16T13:21:20.172Z,33.13
2018-04-16T13:23:53.727Z,24.60
2018-04-16T13:26:34.547Z,29.43
2018-04-16T13:29:02.077Z,33.73
2018-04-16T13:31:30.381Z,37.33
2018-04-16T13:33:57.937Z,28.17
2018-04-16T13:36:25.562Z,29.70
2018-04-16T13:38:58.579Z,33.53
2018-04-16T13:41:26.944Z,30.07
2018-04-16T13:44:00.581Z,29.10
2018-04-16T13:46:33.963Z,30.43
2018-04-16T13:49:02.251Z,33.20
2018-04-16T13:51:30.523Z,30.53
2018-04-16T13:53:58.809Z,29.27
2018-04-16T13:56:27.107Z,28.47
2018-04-16T13:58:54.723Z,28.50
2018-04-16T14:01:23.451Z,33.00
2018-04-16T14:03:51.059Z,26.37
2018-04-16T14:06:18.961Z,32.13
2018-04-16T14:08:46.545Z,38.47
2018-04-16T14:11:20.727Z,30.00
2018-04-16T14:13:48.331Z,30.73
2018-04-16T14:16:22.578Z,36.27
2018-04-16T14:19:02.663Z,33.07
2018-04-16T14:21:30.187Z,31.67
2018-04-16T14:24:03.614Z,30.37
2018-04-16T14:26:37.031Z,35.03
2018-04-16T14:29:05.481Z,35.20
2018-04-16T14:31:33.000Z,38.80
2018-04-16T14:34:02.063Z,36.67
2018-04-16T14:36:29.581Z,32.20
2018-04-16T14:39:08.472Z,38.47
2018-04-16T14:41:36.033Z,48.97
2018-04-16T14:44:04.330Z,36.27
2018-04-16T14:46:32.675Z,44.00
2018-04-16T14:49:05.861Z,36.37
2018-04-16T14:51:34.217Z,41.00
2018-04-16T14:54:01.813Z,44.73
2018-04-16T14:56:29.476Z,44.50
2018-04-16T14:58:56.992Z,44.07
2018-04-16T15:01:24.523Z,51.90
2018-04-16T15:03:57.907Z,51.07
2018-04-16T15:06:25.454Z,46.50
2018-04-16T15:08:52.953Z,48.03
2018-04-16T15:11:21.053Z,51.60
2018-04-16T15:13:50.154Z,48.00
2018-04-16T15:16:23.584Z,49.17
2018-04-16T15:18:51.891Z,49.93
2018-04-16T15:21:19.417Z,50.67
2018-04-16T15:23:47.311Z,43.83
2018-04-16T15:26:14.809Z,45.00
2018-04-16T15:28:42.320Z,49.77
2018-04-16T15:31:10.027Z,45.10
2018-04-16T15:33:37.532Z,48.93
2018-04-16T15:36:06.033Z,43.73
2018-04-16T15:38:33.598Z,46.10
2018-04-16T15:41:01.211Z,46.53
2018-04-16T15:43:28.870Z,46.17
2018-04-16T15:45:57.202Z,43.73
2018-04-16T15:48:24.780Z,48.80
2018-04-16T15:50:52.205Z,41.60
2018-04-16T15:53:20.476Z,42.50
2018-04-16T15:55:48.745Z,40.27
2018-04-16T15:58:16.263Z,44.10
2018-04-16T16:00:43.745Z,40.00
2018-04-16T16:03:11.332Z,40.10
2018-04-16T16:05:38.895Z,46.90
2018-04-16T16:08:06.373Z,43.90
2018-04-16T16:10:35.921Z,46.97
2018-04-16T16:13:03.613Z,48.83
2018-04-16T16:15:31.099Z,44.40
2018-04-16T16:18:09.379Z,40.03
2018-04-16T16:20:36.880Z,45.90
2018-04-16T16:23:05.155Z,47.13
2018-04-16T16:25:32.677Z,53.57
2018-04-16T16:28:00.243Z,42.83
2018-04-16T16:30:27.747Z,47.10
2018-04-16T16:32:55.286Z,45.60
2018-04-16T16:35:26.723Z,47.80
2018-04-16T16:37:55.568Z,50.77
2018-04-16T16:40:23.068Z,52.30
2018-04-16T16:42:50.636Z,46.50
2018-04-16T16:45:18.133Z,49.40
2018-04-16T16:47:45.679Z,45.97
2018-04-16T16:50:13.188Z,52.77
2018-04-16T16:52:41.459Z,57.40
2018-04-16T16:55:08.992Z,53.30
2018-04-16T16:57:36.478Z,49.97
2018-04-16T17:00:04.554Z,50.23
2018-04-16T17:02:32.186Z,54.23
2018-04-16T17:05:00.512Z,53.30
2018-04-16T17:07:27.992Z,57.60
2018-04-16T17:09:56.298Z,50.67
2018-04-16T17:12:23.837Z,51.57
2018-04-16T17:14:52.244Z,49.13
2018-04-16T17:17:19.763Z,45.77
2018-04-16T17:19:47.278Z,56.77
2018-04-16T17:22:15.358Z,49.60
2018-04-16T17:24:43.436Z,51.57
2018-04-16T17:27:10.992Z,53.13
2018-04-16T17:29:38.522Z,54.73
2018-04-16T17:32:06.803Z,53.00
2018-04-16T17:34:35.074Z,52.47
2018-04-16T17:37:02.592Z,55.93
2018-04-16T17:39:31.510Z,44.63
2018-04-16T17:41:59.195Z,49.90
2018-04-16T17:44:26.741Z,51.43
2018-04-16T17:46:54.252Z,56.43
2018-04-16T17:49:22.651Z,48.40
2018-04-16T17:51:50.185Z,52.03
2018-04-16T17:54:17.826Z,49.37
2018-04-16T17:56:45.401Z,49.50
2018-04-16T17:59:13.173Z,48.33
2018-04-16T18:01:42.317Z,45.07
2018-04-16T18:04:09.852Z,47.13
2018-04-16T18:06:38.241Z,51.73
2018-04-16T18:09:06.581Z,46.23
2018-04-16T18:11:34.768Z,46.30
2018-04-16T18:14:02.270Z,47.23
2018-04-16T18:16:31.831Z,48.07
2018-04-16T18:18:59.381Z,48.17
2018-04-16T18:21:26.876Z,45.20
2018-04-16T18:23:56.322Z,47.60
2018-04-16T18:26:23.957Z,58.27
2018-04-16T18:28:53.550Z,50.30
2018-04-16T18:31:22.045Z,59.80
2018-04-16T18:33:49.763Z,50.77
2018-04-16T18:36:17.398Z,47.87
2018-04-16T18:38:45.704Z,53.50
2018-04-16T18:41:13.206Z,57.03
2018-04-16T18:43:40.749Z,51.93
2018-04-16T18:46:08.277Z,55.20
2018-04-16T18:48:36.329Z,50.67
2018-04-16T18:51:03.933Z,53.10
2018-04-16T18:53:31.531Z,47.07
2018-04-16T18:56:01.088Z,53.23
2018-04-16T18:58:28.663Z,61.27
2018-04-16T19:00:58.221Z,45.80
2018-04-16T19:03:25.785Z,45.40
2018-04-16T19:05:53.292Z,55.27
2018-04-16T19:08:21.666Z,46.07
2018-04-16T19:10:50.959Z,47.63
2018-04-16T19:13:19.247Z,53.10
2018-04-16T19:15:46.906Z,44.07
2018-04-16T19:18:14.439Z,51.50
2018-04-16T19:21:01.340Z,45.27
2018-04-16T19:23:29.220Z,54.50
2018-04-16T19:25:57.258Z,53.20
2018-04-16T19:28:24.818Z,51.50
2018-04-16T19:30:53.836Z,54.23
2018-04-16T19:33:29.027Z,54.73
2018-04-16T19:35:57.448Z,53.80
2018-04-16T19:38:25.185Z,49.50
2018-04-16T19:40:52.720Z,46.97
2018-04-16T19:43:20.234Z,47.03
2018-04-16T19:45:48.576Z,55.17
2018-04-16T19:48:16.273Z,54.40
2018-04-16T19:50:44.591Z,51.23
2018-04-16T19:53:12.125Z,43.73
2018-04-16T19:55:46.189Z,45.90
2018-04-16T19:58:19.506Z,52.57
2018-04-16T20:00:47.991Z,49.33
2018-04-16T20:03:22.325Z,51.03
2018-04-16T20:05:50.839Z,44.30
2018-04-16T20:08:19.945Z,47.80
2018-04-16T20:10:47.492Z,49.07
2018-04-16T20:13:15.174Z,52.17
2018-04-16T20:15:42.741Z,51.90
2018-04-16T20:18:10.240Z,48.60
2018-04-16T20:20:37.886Z,48.10
2018-04-16T20:23:06.361Z,49.37
2018-04-16T20:25:33.992Z,47.33
2018-04-16T20:28:02.256Z,51.13
2018-04-16T20:30:29.827Z,49.93
2018-04-16T20:32:57.371Z,55.00
2018-04-16T20:35:24.909Z,49.30
2018-04-16T20:37:52.642Z,56.17
2018-04-16T20:40:20.188Z,45.87
2018-04-16T20:42:47.689Z,53.37
2018-04-16T20:45:15.605Z,62.97
2018-04-16T20:47:45.328Z,57.27
2018-04-16T20:50:14.559Z,58.40
2018-04-16T20:52:42.067Z,57.20
2018-04-16T20:55:09.700Z,49.97
2018-04-16T20:57:37.209Z,56.27
2018-04-16T21:00:05.253Z,46.23
2018-04-16T21:02:32.863Z,57.77
2018-04-16T21:05:01.136Z,59.23
2018-04-16T21:07:28.679Z,61.77
2018-04-16T21:09:56.271Z,57.90
2018-04-16T21:12:25.285Z,61.60
2018-04-16T21:14:53.609Z,58.93
2018-04-16T21:17:21.099Z,61.53
2018-04-16T21:19:48.651Z,63.63
2018-04-16T21:22:16.195Z,67.33
2018-04-16T21:24:43.862Z,62.37
2018-04-16T21:27:11.364Z,59.70
2018-04-16T21:29:39.633Z,57.83
2018-04-16T21:32:07.225Z,70.23
2018-04-16T21:34:34.734Z,63.60
2018-04-16T21:37:02.264Z,66.00
2018-04-16T21:39:30.590Z,67.60
2018-04-16T21:41:58.098Z,68.00
2018-04-16T21:44:26.322Z,77.30
2018-04-16T21:46:53.836Z,65.97
2018-04-16T21:49:21.402Z,62.03
2018-04-16T21:51:48.934Z,63.53
2018-04-16T21:54:16.446Z,67.17
2018-04-16T21:56:44.711Z,69.30
2018-04-16T21:59:12.409Z,77.67
2018-04-16T22:01:39.912Z,66.43
2018-04-16T22:04:07.416Z,66.70
2018-04-16T22:06:35.684Z,65.33
2018-04-16T22:09:03.426Z,78.57
2018-04-16T22:11:30.982Z,66.97
2018-04-16T22:13:59.444Z,68.30
2018-04-16T22:16:26.976Z,69.07
2018-04-16T22:18:55.250Z,59.50
2018-04-16T22:21:22.740Z,66.37
2018-04-16T22:23:50.281Z,67.57
2018-04-16T22:26:17.874Z,62.50
2018-04-16T22:28:45.488Z,62.50
2018-04-16T22:31:13.018Z,66.77
2018-04-16T22:33:40.720Z,60.53
2018-04-16T22:36:08.251Z,64.60
2018-04-16T22:38:35.758Z,58.03
2018-04-16T22:41:03.279Z,61.70
2018-04-16T22:43:30.786Z,74.60
2018-04-16T22:45:58.385Z,63.30
2018-04-16T22:48:25.973Z,61.40
2018-04-16T22:50:53.481Z,68.90
2018-04-16T22:53:20.994Z,67.23
2018-04-16T22:55:48.483Z,66.37
2018-04-16T22:58:15.963Z,59.23
2018-04-16T23:00:43.535Z,60.47
2018-04-16T23:03:11.159Z,59.83
2018-04-16T23:05:38.674Z,70.87
2018-04-16T23:08:06.927Z,65.30
2018-04-16T23:10:34.451Z,61.77
2018-04-16T23:13:01.965Z,79.03
2018-04-16T23:15:30.273Z,60.20
2018-04-16T23:17:58.549Z,65.93
2018-04-16T23:20:26.813Z,65.73
2018-04-16T23:22:54.323Z,68.23
2018-04-16T23:25:21.874Z,69.27
2018-04-16T23:27:49.367Z,54.93
2018-04-16T23:30:16.891Z,70.37
2018-04-16T23:32:45.181Z,63.67
2018-04-16T23:35:12.687Z,60.07
2018-04-16T23:37:40.164Z,56.27
2018-04-16T23:40:09.177Z,52.63
2018-04-16T23:42:37.076Z,54.37
2018-04-16T23:45:04.563Z,46.80
2018-04-16T23:47:32.059Z,60.33
2018-04-16T23:49:59.967Z,62.07
2018-04-16T23:52:28.227Z,47.07
2018-04-16T23:54:55.707Z,50.60
2018-04-16T23:57:23.976Z,52.37
2018-04-16T23:59:51.469Z,53.33
